Time;durP1;ratioP1;P1;durP2;ratioP2;P2;SDS_P1;SDS_P2;PMS_P1;PMS_P2;Temp;Humidity;BMP_temperature;BMP_pressure;BME280_temperature;BME280_humidity;BME280_pressure;Samples;Min_cycle;Max_cycle;Signal;HPM_P1;HPM_P2
2023/10/04 00:00:20;;;;;;;9.95;2.17;;;;;;;;;;5086527;28;20056;-59
2023/10/04 00:02:51;;;;;;;5.82;1.40;;;;;;;;;;5085583;28;20052;-60
2023/10/04 00:05:19;;;;;;;9.30;2.25;;;;;;;;;;5086367;28;20053;-59
2023/10/04 00:07:47;;;;;;;4.82;1.60;;;;;;;;;;5074436;28;20435;-60
2023/10/04 00:10:14;;;;;;;3.55;1.45;;;;;;;;;;5066756;28;20053;-60
2023/10/04 00:12:41;;;;;;;3.38;1.45;;;;;;;;;;5077378;28;20053;-59
2023/10/04 00:15:14;;;;;;;8.43;1.83;;;;;;;;;;5086501;28;20055;-59
2023/10/04 00:17:42;;;;;;;3.47;1.80;;;;;;;;;;5085706;28;20053;-60
2023/10/04 00:20:13;;;;;;;5.68;1.80;;;;;;;;;;5086603;28;20053;-59
2023/10/04 00:22:40;;;;;;;8.57;2.22;;;;;;;;;;5084902;28;20056;-59
2023/10/04 00:25:11;;;;;;;9.75;1.85;;;;;;;;;;5065477;28;20053;-59
2023/10/04 00:27:40;;;;;;;6.28;1.85;;;;;;;;;;5065328;28;20057;-59
2023/10/04 00:30:15;;;;;;;4.13;1.30;;;;;;;;;;5082649;28;20527;-60
2023/10/04 00:32:42;;;;;;;5.97;2.25;;;;;;;;;;5078046;28;20059;-60
2023/10/04 00:35:26;;;;;;;3.88;1.42;;;;;;;;;;5085718;28;20616;-58
2023/10/04 00:37:56;;;;;;;5.20;1.60;;;;;;;;;;5081968;28;20103;-59
2023/10/04 00:40:24;;;;;;;11.80;1.88;;;;;;;;;;5065775;28;20063;-60
2023/10/04 00:42:51;;;;;;;7.35;1.95;;;;;;;;;;5070113;28;20063;-59
2023/10/04 00:45:19;;;;;;;6.80;1.98;;;;;;;;;;5077713;28;20053;-59
2023/10/04 00:47:50;;;;;;;7.80;2.03;;;;;;;;;;5065605;28;20053;-59
2023/10/04 00:50:29;;;;;;;9.18;1.73;;;;;;;;;;5093804;28;20057;-59
2023/10/04 00:53:00;;;;;;;7.57;2.10;;;;;;;;;;5085546;28;20057;-60
2023/10/04 00:55:27;;;;;;;5.50;1.70;;;;;;;;;;5077603;28;20152;-60
2023/10/04 00:57:54;;;;;;;7.70;2.33;;;;;;;;;;5078250;28;20538;-60
2023/10/04 01:00:21;;;;;;;5.68;2.03;;;;;;;;;;5085334;28;20127;-59
2023/10/04 01:02:48;;;;;;;4.85;1.90;;;;;;;;;;5084864;28;20511;-60
2023/10/04 01:05:16;;;;;;;6.10;1.90;;;;;;;;;;5084872;28;20059;-60
2023/10/04 01:07:42;;;;;;;7.30;2.45;;;;;;;;;;5083127;28;20056;-60
2023/10/04 01:10:15;;;;;;;4.25;1.48;;;;;;;;;;5074527;28;20102;-59
2023/10/04 01:12:46;;;;;;;8.77;2.30;;;;;;;;;;5083218;28;20579;-59
2023/10/04 01:15:49;;;;;;;3.85;1.88;;;;;;;;;;5085660;28;20052;-60
2023/10/04 01:18:07;;;;;;;8.45;1.90;;;;;;;;;;5083520;28;20130;-59
2023/10/04 01:20:35;;;;;;;9.38;1.80;;;;;;;;;;5073151;28;20140;-59
2023/10/04 01:23:02;;;;;;;6.15;2.40;;;;;;;;;;5064950;28;20057;-59
2023/10/04 01:25:29;;;;;;;8.20;1.90;;;;;;;;;;5064642;28;20190;-59
2023/10/04 01:27:55;;;;;;;8.13;2.17;;;;;;;;;;5064417;28;20683;-60
2023/10/04 01:30:22;;;;;;;7.20;2.20;;;;;;;;;;5089724;27;20063;-59
2023/10/04 01:32:50;;;;;;;10.85;2.00;;;;;;;;;;5084312;28;20556;-59
2023/10/04 01:35:24;;;;;;;3.95;1.70;;;;;;;;;;5084883;28;20162;-59
2023/10/04 01:37:54;;;;;;;7.65;1.70;;;;;;;;;;5082686;28;20540;-58
2023/10/04 01:40:25;;;;;;;8.68;1.83;;;;;;;;;;5073921;28;20049;-59
2023/10/04 01:42:54;;;;;;;8.63;2.63;;;;;;;;;;5064823;28;20080;-59
2023/10/04 01:45:21;;;;;;;9.10;2.22;;;;;;;;;;5064630;28;20046;-60
2023/10/04 01:47:49;;;;;;;6.28;1.83;;;;;;;;;;5064504;28;20065;-59
2023/10/04 01:50:16;;;;;;;9.85;2.30;;;;;;;;;;5071385;28;20494;-60
2023/10/04 01:52:50;;;;;;;7.10;2.08;;;;;;;;;;5083843;28;20052;-59
2023/10/04 01:55:17;;;;;;;4.70;1.75;;;;;;;;;;5084935;28;20135;-60
2023/10/04 01:57:45;;;;;;;8.13;2.22;;;;;;;;;;5083916;28;20075;-58
2023/10/04 02:00:22;;;;;;;10.57;2.40;;;;;;;;;;5076866;28;20053;-59
2023/10/04 02:02:49;;;;;;;4.10;1.77;;;;;;;;;;5064354;28;20080;-60
2023/10/04 02:05:19;;;;;;;7.38;1.50;;;;;;;;;;5079997;28;20057;-59
2023/10/04 02:07:46;;;;;;;6.50;1.85;;;;;;;;;;5063809;28;20053;-60
2023/10/04 02:10:17;;;;;;;6.93;1.83;;;;;;;;;;5069281;28;20048;-60
2023/10/04 02:12:44;;;;;;;5.53;1.63;;;;;;;;;;5083821;28;20143;-59
2023/10/04 02:15:15;;;;;;;6.50;1.90;;;;;;;;;;5083380;28;20566;-59
2023/10/04 02:17:43;;;;;;;9.90;1.88;;;;;;;;;;5083140;28;20122;-59
2023/10/04 02:20:13;;;;;;;5.93;1.75;;;;;;;;;;5078629;28;20282;-59
2023/10/04 02:22:39;;;;;;;7.35;2.83;;;;;;;;;;5064125;28;20053;-59
2023/10/04 02:25:06;;;;;;;9.10;2.03;;;;;;;;;;5064045;28;20052;-60
2023/10/04 02:27:33;;;;;;;8.88;2.55;;;;;;;;;;5081152;28;20499;-59
2023/10/04 02:29:59;;;;;;;9.20;2.35;;;;;;;;;;5079828;28;20494;-59
2023/10/04 02:32:26;;;;;;;8.75;1.80;;;;;;;;;;5063105;28;20441;-60
2023/10/04 02:34:53;;;;;;;5.82;2.03;;;;;;;;;;5063737;28;20056;-60
2023/10/04 02:37:19;;;;;;;10.60;2.25;;;;;;;;;;5063414;28;20144;-59
2023/10/04 02:39:46;;;;;;;3.88;1.50;;;;;;;;;;5065138;28;20060;-60
2023/10/04 02:42:12;;;;;;;5.38;1.85;;;;;;;;;;5083811;28;20140;-58
2023/10/04 02:44:42;;;;;;;5.70;2.03;;;;;;;;;;5084216;28;20449;-59
2023/10/04 02:47:08;;;;;;;4.63;2.00;;;;;;;;;;5082756;28;20494;-59
2023/10/04 02:49:38;;;;;;;6.72;2.10;;;;;;;;;;5083203;28;20058;-59
2023/10/04 02:52:11;;;;;;;10.68;2.45;;;;;;;;;;5080467;28;20153;-60
2023/10/04 02:54:38;;;;;;;7.85;2.00;;;;;;;;;;5082660;28;20048;-59
2023/10/04 02:57:05;;;;;;;7.65;2.28;;;;;;;;;;5084041;28;20490;-59
2023/10/04 02:59:32;;;;;;;8.20;1.98;;;;;;;;;;5083479;28;20127;-60
2023/10/04 03:02:00;;;;;;;7.85;2.25;;;;;;;;;;5063304;28;20273;-59
2023/10/04 03:04:26;;;;;;;6.97;2.28;;;;;;;;;;5063247;28;20071;-59
2023/10/04 03:06:53;;;;;;;8.90;2.90;;;;;;;;;;5063774;28;20076;-59
2023/10/04 03:09:20;;;;;;;8.57;2.25;;;;;;;;;;5063402;28;20443;-59
2023/10/04 03:11:47;;;;;;;10.57;2.10;;;;;;;;;;5069558;28;20111;-59
2023/10/04 03:14:15;;;;;;;7.85;2.42;;;;;;;;;;5063684;28;20049;-59
2023/10/04 03:16:42;;;;;;;7.75;2.47;;;;;;;;;;5062684;28;20522;-59
2023/10/04 03:19:12;;;;;;;7.25;2.13;;;;;;;;;;5062685;28;20060;-60
2023/10/04 03:21:44;;;;;;;6.95;2.22;;;;;;;;;;5070453;28;20593;-60
2023/10/04 03:24:11;;;;;;;9.30;2.28;;;;;;;;;;5083357;28;20551;-60
2023/10/04 03:26:38;;;;;;;7.97;2.38;;;;;;;;;;5082941;28;20063;-59
2023/10/04 03:29:04;;;;;;;8.02;2.08;;;;;;;;;;5082594;28;20055;-59
2023/10/04 03:31:33;;;;;;;13.38;2.30;;;;;;;;;;5081310;28;20080;-60
2023/10/04 03:33:59;;;;;;;11.50;2.72;;;;;;;;;;5082995;28;20516;-58
2023/10/04 03:36:26;;;;;;;8.00;2.50;;;;;;;;;;5081186;28;20506;-60
2023/10/04 03:38:52;;;;;;;8.30;2.10;;;;;;;;;;5062471;28;20345;-60
2023/10/04 03:41:19;;;;;;;8.40;2.33;;;;;;;;;;5063391;28;20057;-58
2023/10/04 03:43:46;;;;;;;4.47;1.75;;;;;;;;;;5062690;28;21490;-59
2023/10/04 03:46:19;;;;;;;5.13;2.03;;;;;;;;;;5062441;28;20049;-59
2023/10/04 03:48:49;;;;;;;8.57;2.55;;;;;;;;;;5080670;28;20059;-59
2023/10/04 03:51:20;;;;;;;7.32;2.50;;;;;;;;;;5081124;28;20064;-60
2023/10/04 03:53:47;;;;;;;9.18;2.38;;;;;;;;;;5082594;28;20053;-60
2023/10/04 03:56:16;;;;;;;5.78;1.95;;;;;;;;;;5082918;28;20052;-60
2023/10/04 03:58:44;;;;;;;9.93;1.98;;;;;;;;;;5082399;28;20055;-60
2023/10/04 04:01:11;;;;;;;4.50;1.52;;;;;;;;;;5080684;28;20053;-60
2023/10/04 04:03:37;;;;;;;12.50;2.22;;;;;;;;;;5062452;28;20064;-60
2023/10/04 04:06:05;;;;;;;7.85;1.80;;;;;;;;;;5062679;28;20057;-60
2023/10/04 04:08:31;;;;;;;5.57;2.45;;;;;;;;;;5061698;28;20115;-60
2023/10/04 04:10:58;;;;;;;6.05;1.98;;;;;;;;;;5063061;28;20130;-60
2023/10/04 04:13:24;;;;;;;6.07;2.10;;;;;;;;;;5063338;28;20049;-59
2023/10/04 04:15:51;;;;;;;11.13;2.80;;;;;;;;;;5062416;28;20081;-60
2023/10/04 04:18:21;;;;;;;7.28;2.10;;;;;;;;;;5076300;28;20079;-60
2023/10/04 04:20:48;;;;;;;9.38;1.77;;;;;;;;;;5082032;28;20059;-60
2023/10/04 04:23:15;;;;;;;8.27;2.10;;;;;;;;;;5081904;28;20079;-60
2023/10/04 04:25:42;;;;;;;6.90;2.28;;;;;;;;;;5081454;28;20052;-60
2023/10/04 04:28:12;;;;;;;6.00;2.47;;;;;;;;;;5082436;28;20062;-59
2023/10/04 04:30:39;;;;;;;8.80;2.10;;;;;;;;;;5079941;28;20267;-59
2023/10/04 04:33:07;;;;;;;13.32;2.90;;;;;;;;;;5076350;28;20044;-60
2023/10/04 04:40:46;;;;;;;4.85;1.42;;;;;;;;;;5085482;28;20060;-57
2023/10/04 04:45:53;;;;;;;5.50;1.65;;;;;;;;;;5085336;28;20531;-59
2023/10/04 04:48:23;;;;;;;9.70;2.58;;;;;;;;;;5070872;28;20059;-60
2023/10/04 04:50:54;;;;;;;9.68;2.72;;;;;;;;;;5081413;28;20052;-59
2023/10/04 04:53:27;;;;;;;10.15;2.33;;;;;;;;;;5085422;28;20048;-59
2023/10/04 04:55:54;;;;;;;7.50;2.35;;;;;;;;;;5086402;28;20485;-58
2023/10/04 04:58:25;;;;;;;4.75;2.13;;;;;;;;;;5084864;28;20572;-59
2023/10/04 05:00:56;;;;;;;6.07;2.42;;;;;;;;;;5084719;28;20065;-59
2023/10/04 05:03:24;;;;;;;13.85;2.42;;;;;;;;;;5085443;28;20048;-60
2023/10/04 05:05:51;;;;;;;9.43;2.42;;;;;;;;;;5084393;28;20099;-58
2023/10/04 05:08:18;;;;;;;6.25;2.40;;;;;;;;;;5085487;28;20580;-58
2023/10/04 05:10:45;;;;;;;8.02;2.72;;;;;;;;;;5084561;28;20181;-59
2023/10/04 05:13:18;;;;;;;6.72;2.10;;;;;;;;;;5084517;28;20522;-60
2023/10/04 05:15:45;;;;;;;8.10;2.70;;;;;;;;;;5085525;28;20052;-60
2023/10/04 05:18:15;;;;;;;11.20;2.97;;;;;;;;;;5084319;28;20062;-59
2023/10/04 05:20:42;;;;;;;13.63;3.47;;;;;;;;;;5084451;28;20110;-60
2023/10/04 05:23:09;;;;;;;6.85;2.42;;;;;;;;;;5067496;28;20145;-60
2023/10/04 05:25:36;;;;;;;8.02;2.60;;;;;;;;;;5064754;28;20103;-60
2023/10/04 05:28:03;;;;;;;7.57;2.17;;;;;;;;;;5064404;28;20048;-60
2023/10/04 05:30:30;;;;;;;8.75;2.53;;;;;;;;;;5064140;28;20527;-60
2023/10/04 05:32:57;;;;;;;8.23;2.92;;;;;;;;;;5077767;28;20519;-60
2023/10/04 05:35:24;;;;;;;11.57;3.10;;;;;;;;;;5083620;28;20052;-60
2023/10/04 05:37:50;;;;;;;7.53;2.60;;;;;;;;;;5083087;28;20063;-60
2023/10/04 05:40:17;;;;;;;11.40;3.45;;;;;;;;;;5084113;28;20238;-60
2023/10/04 05:42:44;;;;;;;8.32;2.88;;;;;;;;;;5070052;28;20426;-59
2023/10/04 05:45:12;;;;;;;7.90;3.03;;;;;;;;;;5064446;28;20049;-59
2023/10/04 05:47:38;;;;;;;12.05;3.08;;;;;;;;;;5064592;28;20053;-59
2023/10/04 05:50:10;;;;;;;6.13;2.45;;;;;;;;;;5077242;28;20143;-59
2023/10/04 05:52:39;;;;;;;10.52;2.63;;;;;;;;;;5075678;28;20099;-60
2023/10/04 05:55:08;;;;;;;5.88;2.45;;;;;;;;;;5079770;28;20338;-60
2023/10/04 05:57:35;;;;;;;8.70;2.85;;;;;;;;;;5083829;28;20057;-60
2023/10/04 06:00:23;;;;;;;8.23;2.78;;;;;;;;;;5069172;28;20498;-59
2023/10/04 06:02:50;;;;;;;7.65;3.00;;;;;;;;;;5082890;28;20119;-59
2023/10/04 06:05:19;;;;;;;8.43;2.58;;;;;;;;;;5084187;28;20048;-57
2023/10/04 06:07:46;;;;;;;15.68;3.58;;;;;;;;;;5082240;28;20044;-59
2023/10/04 06:10:14;;;;;;;13.10;3.22;;;;;;;;;;5074045;28;20053;-60
2023/10/04 06:12:40;;;;;;;8.00;2.75;;;;;;;;;;5080443;28;20556;-59
2023/10/04 06:15:10;;;;;;;9.77;2.95;;;;;;;;;;5083705;28;20099;-58
2023/10/04 06:17:43;;;;;;;12.63;3.97;;;;;;;;;;5083582;28;20495;-60
2023/10/04 06:20:32;;;;;;;12.25;3.05;;;;;;;;;;5082996;28;20532;-60
2023/10/04 06:23:00;;;;;;;7.03;3.08;;;;;;;;;;5082740;28;20062;-59
2023/10/04 06:25:27;;;;;;;11.13;3.05;;;;;;;;;;5082210;28;20153;-59
2023/10/04 06:27:55;;;;;;;9.93;2.53;;;;;;;;;;5082825;28;20052;-60
2023/10/04 06:30:22;;;;;;;8.23;2.60;;;;;;;;;;5082953;28;20147;-60
2023/10/04 06:32:56;;;;;;;8.48;3.10;;;;;;;;;;5082078;28;20094;-59
2023/10/04 06:35:23;;;;;;;8.95;2.90;;;;;;;;;;5083163;28;20056;-58
2023/10/04 06:37:54;;;;;;;9.55;4.15;;;;;;;;;;5083223;28;20059;-59
2023/10/04 06:40:21;;;;;;;14.43;4.07;;;;;;;;;;5079816;28;20048;-58
2023/10/04 06:42:52;;;;;;;14.25;3.50;;;;;;;;;;5080811;28;20116;-58
2023/10/04 06:45:19;;;;;;;12.57;3.25;;;;;;;;;;5083349;28;20475;-57
2023/10/04 06:47:50;;;;;;;9.73;3.15;;;;;;;;;;5083148;28;20515;-59
2023/10/04 06:50:20;;;;;;;7.70;3.45;;;;;;;;;;5083089;28;20053;-60
2023/10/04 06:52:48;;;;;;;9.02;3.10;;;;;;;;;;5081789;28;20049;-58
2023/10/04 06:55:15;;;;;;;9.13;3.78;;;;;;;;;;5082975;28;20454;-60
2023/10/04 06:57:43;;;;;;;9.40;3.15;;;;;;;;;;5082817;28;20635;-60
2023/10/04 07:00:14;;;;;;;10.23;3.58;;;;;;;;;;5081897;28;20136;-59
2023/10/04 07:02:43;;;;;;;15.23;3.67;;;;;;;;;;5082842;28;20048;-60
2023/10/04 07:05:14;;;;;;;7.70;3.20;;;;;;;;;;5082871;28;20210;-60
2023/10/04 07:07:42;;;;;;;11.07;3.50;;;;;;;;;;5082229;28;20067;-60
2023/10/04 07:10:09;;;;;;;18.20;4.03;;;;;;;;;;5082517;28;20082;-60
2023/10/04 07:12:36;;;;;;;11.88;3.83;;;;;;;;;;5082535;28;20523;-60
2023/10/04 07:15:04;;;;;;;10.05;3.53;;;;;;;;;;5081909;28;20456;-60
2023/10/04 07:17:30;;;;;;;13.02;3.58;;;;;;;;;;5082066;28;20056;-58
2023/10/04 07:19:58;;;;;;;8.60;3.25;;;;;;;;;;5082308;28;20598;-60
2023/10/04 07:22:32;;;;;;;12.18;3.75;;;;;;;;;;5082395;28;20606;-60
2023/10/04 07:24:59;;;;;;;12.18;3.83;;;;;;;;;;5082307;28;20648;-60
2023/10/04 07:27:26;;;;;;;17.98;3.33;;;;;;;;;;5082742;28;20184;-60
2023/10/04 07:29:53;;;;;;;10.68;4.40;;;;;;;;;;5081210;28;20061;-59
2023/10/04 07:32:21;;;;;;;10.90;3.47;;;;;;;;;;5081714;28;20159;-61
2023/10/04 07:34:47;;;;;;;9.63;3.75;;;;;;;;;;5082171;28;20595;-60
2023/10/04 07:37:14;;;;;;;10.52;3.80;;;;;;;;;;5081875;28;20094;-60
2023/10/04 07:39:40;;;;;;;18.35;4.85;;;;;;;;;;5073993;28;20450;-60
2023/10/04 07:42:07;;;;;;;14.18;3.78;;;;;;;;;;5082412;28;20056;-60
2023/10/04 07:44:34;;;;;;;14.63;3.35;;;;;;;;;;5083001;28;20052;-60
2023/10/04 07:47:00;;;;;;;12.73;3.78;;;;;;;;;;5082323;28;20063;-60
2023/10/04 07:49:28;;;;;;;14.55;3.63;;;;;;;;;;5081933;28;20554;-60
2023/10/04 07:51:56;;;;;;;13.90;4.10;;;;;;;;;;5082460;28;20475;-60
2023/10/04 07:54:22;;;;;;;14.30;4.03;;;;;;;;;;5081698;28;20111;-60
2023/10/04 07:56:49;;;;;;;13.20;4.35;;;;;;;;;;5082648;28;20064;-58
2023/10/04 07:59:17;;;;;;;16.20;4.05;;;;;;;;;;5081934;28;20052;-59
2023/10/04 08:01:43;;;;;;;9.30;3.10;;;;;;;;;;5080672;28;20502;-59
2023/10/04 08:04:11;;;;;;;14.20;3.88;;;;;;;;;;5081879;28;20052;-60
2023/10/04 08:06:41;;;;;;;15.32;4.07;;;;;;;;;;5073581;28;20059;-62
2023/10/04 08:09:08;;;;;;;21.00;4.30;;;;;;;;;;5072176;28;20056;-58
2023/10/04 08:11:34;;;;;;;11.77;3.50;;;;;;;;;;5069106;28;20067;-60
2023/10/04 08:14:07;;;;;;;11.27;3.78;;;;;;;;;;5085494;28;20586;-62
2023/10/04 08:16:34;;;;;;;14.18;4.18;;;;;;;;;;5085488;28;20055;-60
2023/10/04 08:19:03;;;;;;;10.57;3.08;;;;;;;;;;5076940;28;20049;-61
2023/10/04 08:21:30;;;;;;;22.35;3.78;;;;;;;;;;5064617;28;20053;-60
2023/10/04 08:24:00;;;;;;;15.55;4.90;;;;;;;;;;5071835;28;20076;-60
2023/10/04 08:26:26;;;;;;;12.13;3.65;;;;;;;;;;5084496;28;20438;-60
2023/10/04 08:28:53;;;;;;;12.23;3.90;;;;;;;;;;5081162;27;20048;-59
2023/10/04 08:31:20;;;;;;;10.85;4.32;;;;;;;;;;5085368;28;20080;-60
2023/10/04 08:33:48;;;;;;;13.63;3.22;;;;;;;;;;5084994;28;20056;-60
2023/10/04 08:36:16;;;;;;;10.70;3.53;;;;;;;;;;5072538;28;20053;-59
2023/10/04 08:38:44;;;;;;;14.30;3.85;;;;;;;;;;5079372;28;20079;-60
2023/10/04 08:41:10;;;;;;;14.43;3.53;;;;;;;;;;5073450;28;20529;-60
2023/10/04 08:43:38;;;;;;;10.55;4.65;;;;;;;;;;5083479;28;20144;-60
2023/10/04 08:46:07;;;;;;;11.93;3.78;;;;;;;;;;5085040;28;20155;-61
2023/10/04 08:48:34;;;;;;;15.63;3.35;;;;;;;;;;5084682;28;20157;-61
2023/10/04 08:51:12;;;;;;;11.77;3.83;;;;;;;;;;5084592;28;20134;-60
2023/10/04 08:53:52;;;;;;;13.10;3.28;;;;;;;;;;5083642;28;20048;-61
2023/10/04 08:56:19;;;;;;;15.18;3.92;;;;;;;;;;5085889;28;20056;-60
2023/10/04 08:58:46;;;;;;;10.32;3.42;;;;;;;;;;5084912;28;20060;-60
2023/10/04 09:01:15;;;;;;;14.35;4.05;;;;;;;;;;5065895;28;20107;-61
2023/10/04 09:03:43;;;;;;;10.18;3.22;;;;;;;;;;5079036;28;20052;-60
2023/10/04 09:06:11;;;;;;;10.13;3.33;;;;;;;;;;5084474;28;20056;-60
2023/10/04 09:08:40;;;;;;;14.50;4.00;;;;;;;;;;5084838;28;20163;-60
2023/10/04 09:11:10;;;;;;;14.35;4.05;;;;;;;;;;5083435;28;20560;-61
2023/10/04 09:13:43;;;;;;;11.77;3.53;;;;;;;;;;5083962;28;20058;-61
2023/10/04 09:16:24;;;;;;;11.38;3.10;;;;;;;;;;5084498;28;20565;-60
2023/10/04 09:19:14;;;;;;;11.82;3.45;;;;;;;;;;5083729;28;20144;-60
2023/10/04 09:21:41;;;;;;;9.60;4.00;;;;;;;;;;5084236;28;20491;-60
2023/10/04 09:24:09;;;;;;;11.30;3.60;;;;;;;;;;5083923;28;20052;-59
2023/10/04 09:26:37;;;;;;;15.02;4.78;;;;;;;;;;5077731;28;20053;-60
2023/10/04 09:29:04;;;;;;;16.27;4.28;;;;;;;;;;5081340;28;20052;-60
2023/10/04 09:31:44;;;;;;;9.23;3.45;;;;;;;;;;5084007;28;20140;-60
2023/10/04 09:34:11;;;;;;;14.88;3.88;;;;;;;;;;5083346;28;20057;-61
2023/10/04 09:36:38;;;;;;;9.65;3.33;;;;;;;;;;5083469;28;20052;-59
2023/10/04 09:39:09;;;;;;;12.20;4.07;;;;;;;;;;5100382;27;20438;-60
2023/10/04 09:41:40;;;;;;;14.10;4.03;;;;;;;;;;5084529;28;20126;-60
2023/10/04 09:44:26;;;;;;;14.13;4.00;;;;;;;;;;5081806;28;20053;-61
2023/10/04 09:46:57;;;;;;;9.18;3.13;;;;;;;;;;5083609;28;20052;-60
2023/10/04 09:49:25;;;;;;;14.88;4.10;;;;;;;;;;5083127;28;20704;-60
2023/10/04 09:51:55;;;;;;;12.88;3.97;;;;;;;;;;5084046;28;20062;-60
2023/10/04 09:54:22;;;;;;;11.05;3.47;;;;;;;;;;5082467;28;20143;-60
2023/10/04 09:56:51;;;;;;;13.52;3.70;;;;;;;;;;5084057;28;20052;-59
2023/10/04 09:59:21;;;;;;;16.05;4.28;;;;;;;;;;5084360;28;20154;-60
2023/10/04 10:01:55;;;;;;;14.43;3.55;;;;;;;;;;5082524;28;20053;-60
2023/10/04 10:04:25;;;;;;;12.18;4.50;;;;;;;;;;5081863;28;20048;-60
2023/10/04 10:07:18;;;;;;;12.77;3.70;;;;;;;;;;5083425;28;20053;-60
2023/10/04 10:09:57;;;;;;;14.90;3.97;;;;;;;;;;5054881;28;20094;-60
2023/10/04 10:12:31;;;;;;;12.18;4.85;;;;;;;;;;5078764;28;20514;-60
2023/10/04 10:15:00;;;;;;;11.68;3.83;;;;;;;;;;5078505;28;20061;-60
2023/10/04 10:17:27;;;;;;;12.25;4.03;;;;;;;;;;5081999;28;20576;-60
2023/10/04 10:19:55;;;;;;;10.85;4.25;;;;;;;;;;5083705;28;20063;-60
2023/10/04 10:22:21;;;;;;;14.90;4.15;;;;;;;;;;5081007;28;20604;-60
2023/10/04 10:25:11;;;;;;;15.93;4.45;;;;;;;;;;5080417;28;20137;-60
2023/10/04 10:27:37;;;;;;;8.68;3.17;;;;;;;;;;5065656;28;20439;-60
2023/10/04 10:30:05;;;;;;;12.60;4.32;;;;;;;;;;5083499;28;20080;-61
2023/10/04 10:32:31;;;;;;;14.00;4.82;;;;;;;;;;5082160;28;20499;-61
2023/10/04 10:35:00;;;;;;;13.27;4.20;;;;;;;;;;5082297;28;20677;-60
2023/10/04 10:37:26;;;;;;;16.80;3.85;;;;;;;;;;5082925;28;20052;-60
2023/10/04 10:39:53;;;;;;;12.93;4.13;;;;;;;;;;5083370;28;20533;-60
2023/10/04 10:42:20;;;;;;;10.02;3.90;;;;;;;;;;5082610;28;20135;-60
2023/10/04 10:44:48;;;;;;;15.50;4.05;;;;;;;;;;5098469;27;20057;-60
2023/10/04 10:47:21;;;;;;;10.88;4.15;;;;;;;;;;5082309;28;20049;-60
2023/10/04 10:49:58;;;;;;;11.43;3.75;;;;;;;;;;5082338;28;20052;-60
2023/10/04 10:52:27;;;;;;;13.68;3.65;;;;;;;;;;5082157;28;20062;-59
2023/10/04 10:54:54;;;;;;;11.27;4.20;;;;;;;;;;5069972;28;20474;-60
2023/10/04 10:57:21;;;;;;;13.82;4.70;;;;;;;;;;5076096;28;20517;-60
2023/10/04 10:59:49;;;;;;;11.85;3.70;;;;;;;;;;5082287;28;20059;-60
2023/10/04 11:02:15;;;;;;;12.80;4.28;;;;;;;;;;5082623;28;20608;-60
2023/10/04 11:04:42;;;;;;;8.15;3.20;;;;;;;;;;5081931;28;20139;-61
2023/10/04 11:07:11;;;;;;;9.23;3.83;;;;;;;;;;5082629;28;20068;-59
2023/10/04 11:09:39;;;;;;;14.90;3.95;;;;;;;;;;5079281;28;20072;-60
2023/10/04 11:12:13;;;;;;;12.50;3.67;;;;;;;;;;5063394;28;20488;-60
2023/10/04 11:14:41;;;;;;;11.15;4.13;;;;;;;;;;5078761;28;20052;-61
2023/10/04 11:17:10;;;;;;;13.82;3.47;;;;;;;;;;5083011;28;20570;-60
2023/10/04 11:19:36;;;;;;;10.07;3.22;;;;;;;;;;5068698;28;20481;-61
2023/10/04 11:22:03;;;;;;;12.25;3.92;;;;;;;;;;5095471;27;20060;-60
2023/10/04 11:24:34;;;;;;;11.50;3.45;;;;;;;;;;5074614;28;20140;-60
2023/10/04 11:27:01;;;;;;;17.23;4.28;;;;;;;;;;5062387;28;20056;-60
2023/10/04 11:29:29;;;;;;;9.60;3.10;;;;;;;;;;5074882;28;20373;-60
2023/10/04 11:31:56;;;;;;;10.68;3.33;;;;;;;;;;5075541;28;20060;-61
2023/10/04 11:34:23;;;;;;;12.98;3.50;;;;;;;;;;5081650;28;20068;-61
2023/10/04 11:36:50;;;;;;;12.73;3.67;;;;;;;;;;5081727;28;20110;-60
2023/10/04 11:39:19;;;;;;;11.85;4.88;;;;;;;;;;5082976;28;20133;-60
2023/10/04 11:41:46;;;;;;;13.50;3.63;;;;;;;;;;5078145;28;20045;-60
2023/10/04 11:44:13;;;;;;;10.90;3.90;;;;;;;;;;5080442;28;20055;-60
2023/10/04 11:46:56;;;;;;;9.13;3.53;;;;;;;;;;5083973;28;20056;-60
2023/10/04 11:49:23;;;;;;;12.88;3.72;;;;;;;;;;5085520;28;20064;-60
2023/10/04 11:51:54;;;;;;;15.15;3.75;;;;;;;;;;5082202;28;20045;-59
2023/10/04 11:54:20;;;;;;;7.40;2.80;;;;;;;;;;5077831;28;20139;-61
2023/10/04 11:56:47;;;;;;;7.93;3.13;;;;;;;;;;5079748;28;20588;-61
2023/10/04 11:59:13;;;;;;;10.25;3.67;;;;;;;;;;5078269;28;20167;-61
2023/10/04 12:01:45;;;;;;;9.52;4.03;;;;;;;;;;5085158;28;20057;-60
2023/10/04 12:04:13;;;;;;;17.98;4.35;;;;;;;;;;5084475;28;20056;-61
2023/10/04 12:06:41;;;;;;;6.40;3.03;;;;;;;;;;5073966;28;20529;-61
2023/10/04 12:09:08;;;;;;;11.75;4.03;;;;;;;;;;5079212;28;20411;-60
2023/10/04 12:11:38;;;;;;;11.88;4.00;;;;;;;;;;5074924;28;20545;-61
2023/10/04 12:14:06;;;;;;;9.88;3.55;;;;;;;;;;5084015;28;20048;-60
2023/10/04 12:16:33;;;;;;;9.95;3.20;;;;;;;;;;5085010;28;20056;-61
2023/10/04 12:19:00;;;;;;;11.05;3.50;;;;;;;;;;5084734;28;20052;-60
2023/10/04 12:21:27;;;;;;;8.70;4.05;;;;;;;;;;5077770;28;20535;-60
2023/10/04 12:23:54;;;;;;;13.98;4.43;;;;;;;;;;5071341;28;20102;-61
2023/10/04 12:26:20;;;;;;;9.75;3.85;;;;;;;;;;5085093;28;20066;-61
2023/10/04 12:28:48;;;;;;;10.15;3.65;;;;;;;;;;5083287;28;20049;-60
2023/10/04 12:31:15;;;;;;;12.63;4.00;;;;;;;;;;5070499;28;20068;-61
2023/10/04 12:33:41;;;;;;;10.65;3.13;;;;;;;;;;5068873;28;20084;-61
2023/10/04 12:36:09;;;;;;;13.13;4.30;;;;;;;;;;5077406;28;20053;-60
2023/10/04 12:38:36;;;;;;;9.27;3.47;;;;;;;;;;5069361;28;20102;-60
2023/10/04 12:41:03;;;;;;;15.25;4.85;;;;;;;;;;5072241;28;20545;-60
2023/10/04 12:43:30;;;;;;;18.50;3.90;;;;;;;;;;5068576;28;20139;-61
2023/10/04 12:45:57;;;;;;;9.05;3.33;;;;;;;;;;5081374;28;20106;-62
2023/10/04 12:48:23;;;;;;;8.35;3.30;;;;;;;;;;5066767;28;20049;-61
2023/10/04 12:50:50;;;;;;;10.73;3.67;;;;;;;;;;5086618;27;20118;-60
2023/10/04 12:53:16;;;;;;;17.35;4.20;;;;;;;;;;5085138;28;20056;-61
2023/10/04 12:55:43;;;;;;;9.55;3.30;;;;;;;;;;5083889;28;20051;-61
2023/10/04 12:58:10;;;;;;;8.95;3.30;;;;;;;;;;5083977;28;20129;-61
2023/10/04 13:00:36;;;;;;;9.63;3.38;;;;;;;;;;5083101;28;20053;-60
2023/10/04 13:03:03;;;;;;;9.13;3.08;;;;;;;;;;5075806;28;20048;-60
2023/10/04 13:05:30;;;;;;;8.13;3.50;;;;;;;;;;5084781;28;20052;-61
2023/10/04 13:07:57;;;;;;;9.18;3.00;;;;;;;;;;5067761;28;20144;-61
2023/10/04 13:10:23;;;;;;;9.38;2.80;;;;;;;;;;5081593;28;20414;-61
2023/10/04 13:12:50;;;;;;;8.15;3.33;;;;;;;;;;5081279;28;20147;-60
2023/10/04 13:15:17;;;;;;;9.60;3.00;;;;;;;;;;5085023;28;20048;-60
2023/10/04 13:17:43;;;;;;;8.57;3.25;;;;;;;;;;5084062;28;20052;-60
2023/10/04 13:20:17;;;;;;;10.38;3.67;;;;;;;;;;5090981;28;20111;-60
2023/10/04 13:22:44;;;;;;;12.77;3.17;;;;;;;;;;5071910;28;20115;-60
2023/10/04 13:25:11;;;;;;;8.32;3.35;;;;;;;;;;5080192;28;20048;-60
2023/10/04 13:27:38;;;;;;;7.80;2.72;;;;;;;;;;5083389;28;20724;-60
2023/10/04 13:30:06;;;;;;;10.52;2.90;;;;;;;;;;5083476;28;20084;-60
2023/10/04 13:32:34;;;;;;;10.07;2.88;;;;;;;;;;5078460;28;20056;-60
2023/10/04 13:35:01;;;;;;;10.32;2.55;;;;;;;;;;5075813;28;20045;-60
2023/10/04 13:37:28;;;;;;;7.90;2.25;;;;;;;;;;5084086;28;20060;-60
2023/10/04 13:39:55;;;;;;;13.77;3.58;;;;;;;;;;5083122;28;20075;-60
2023/10/04 13:42:22;;;;;;;10.48;2.63;;;;;;;;;;5084590;28;20049;-60
2023/10/04 13:44:51;;;;;;;10.57;2.53;;;;;;;;;;5083127;28;20079;-63
2023/10/04 13:47:20;;;;;;;6.13;2.38;;;;;;;;;;5072041;28;20427;-61
2023/10/04 13:49:47;;;;;;;9.65;2.92;;;;;;;;;;5083320;28;20105;-61
2023/10/04 13:52:14;;;;;;;7.75;2.55;;;;;;;;;;5070758;28;20511;-61
2023/10/04 13:54:42;;;;;;;7.40;2.63;;;;;;;;;;5064936;28;20151;-60
2023/10/04 13:57:10;;;;;;;8.35;3.10;;;;;;;;;;5071116;28;20064;-61
2023/10/04 13:59:37;;;;;;;14.00;2.70;;;;;;;;;;5077583;28;20481;-61
2023/10/04 14:02:05;;;;;;;13.18;3.00;;;;;;;;;;5077248;28;20056;-60
2023/10/04 14:04:32;;;;;;;5.30;1.92;;;;;;;;;;5084166;27;20147;-60
2023/10/04 14:06:59;;;;;;;4.45;1.88;;;;;;;;;;5064341;28;20053;-61
2023/10/04 14:09:25;;;;;;;11.45;2.47;;;;;;;;;;5079388;28;20110;-61
2023/10/04 14:11:51;;;;;;;8.95;2.17;;;;;;;;;;5079403;28;20367;-61
2023/10/04 14:14:18;;;;;;;7.68;2.10;;;;;;;;;;5084943;28;20072;-60
2023/10/04 14:16:45;;;;;;;5.43;1.90;;;;;;;;;;5082344;27;20056;-61
2023/10/04 14:19:12;;;;;;;4.78;1.70;;;;;;;;;;5080261;28;20071;-61
2023/10/04 14:21:40;;;;;;;7.70;2.47;;;;;;;;;;5080986;28;20575;-60
2023/10/04 14:24:06;;;;;;;8.48;2.25;;;;;;;;;;5080799;28;20143;-61
2023/10/04 14:26:33;;;;;;;8.88;2.40;;;;;;;;;;5074296;28;20138;-61
2023/10/04 14:29:00;;;;;;;6.97;1.90;;;;;;;;;;5076208;28;20524;-61
2023/10/04 14:31:27;;;;;;;5.72;1.88;;;;;;;;;;5070152;28;20561;-61
2023/10/04 14:33:53;;;;;;;5.47;1.65;;;;;;;;;;5067032;28;20152;-59
2023/10/04 14:36:23;;;;;;;4.93;1.90;;;;;;;;;;5085187;28;20480;-60
2023/10/04 14:38:52;;;;;;;8.50;1.90;;;;;;;;;;5080511;28;20507;-60
2023/10/04 14:41:20;;;;;;;4.68;1.40;;;;;;;;;;5081825;28;20045;-59
2023/10/04 14:43:46;;;;;;;8.30;1.70;;;;;;;;;;5070811;28;20872;-60
2023/10/04 14:46:13;;;;;;;4.57;2.00;;;;;;;;;;5076291;28;20087;-61
2023/10/04 14:48:39;;;;;;;6.78;1.63;;;;;;;;;;5081363;28;20517;-60
2023/10/04 14:51:06;;;;;;;7.85;2.03;;;;;;;;;;5080566;28;20703;-60
2023/10/04 14:53:39;;;;;;;7.53;2.10;;;;;;;;;;5082681;28;20103;-60